createdAt,value
2022-11-29T00:00:03.334Z,22.90
2022-11-29T00:03:19.477Z,22.77
2022-11-29T00:06:12.255Z,23.13
2022-11-29T00:09:01.671Z,20.48
2022-11-29T00:12:06.877Z,22.40
2022-11-29T00:14:53.055Z,20.33
2022-11-29T00:17:42.624Z,23.10
2022-11-29T00:20:29.111Z,25.35
2022-11-29T00:23:21.228Z,22.40
2022-11-29T00:26:08.449Z,25.02
2022-11-29T00:28:55.447Z,21.42
2022-11-29T00:31:42.796Z,22.35
2022-11-29T00:34:29.516Z,20.48
2022-11-29T00:37:19.139Z,20.38
2022-11-29T00:40:07.911Z,20.17
2022-11-29T00:42:54.022Z,23.08
2022-11-29T00:45:41.272Z,19.90
2022-11-29T00:48:27.581Z,19.98
2022-11-29T00:51:14.852Z,20.92
2022-11-29T00:54:01.423Z,19.65
2022-11-29T00:56:48.127Z,20.55
2022-11-29T00:59:34.716Z,19.65
2022-11-29T01:02:22.578Z,20.17
2022-11-29T01:05:09.206Z,20.95
2022-11-29T01:07:56.020Z,19.58
2022-11-29T01:10:42.549Z,21.35
2022-11-29T01:13:29.632Z,22.05
2022-11-29T01:16:17.574Z,20.40
2022-11-29T01:19:04.886Z,19.13
2022-11-29T01:21:53.006Z,20.52
2022-11-29T01:24:39.674Z,20.17
2022-11-29T01:27:26.260Z,21.33
2022-11-29T01:30:13.220Z,22.00
2022-11-29T01:32:59.357Z,19.80
2022-11-29T01:35:54.745Z,20.55
2022-11-29T01:38:42.811Z,20.63
2022-11-29T01:41:32.215Z,20.33
2022-11-29T01:44:18.211Z,20.88
2022-11-29T01:47:05.048Z,18.80
2022-11-29T01:49:51.695Z,19.52
2022-11-29T01:52:38.411Z,18.50
2022-11-29T01:55:24.716Z,19.67
2022-11-29T01:58:11.587Z,20.55
2022-11-29T02:00:58.791Z,21.55
2022-11-29T02:03:45.606Z,20.58
2022-11-29T02:06:32.651Z,20.95
2022-11-29T02:09:21.924Z,21.73
2022-11-29T02:12:12.537Z,20.17
2022-11-29T02:17:59.103Z,19.25
2022-11-29T02:21:07.328Z,20.63
2022-11-29T02:24:02.661Z,19.23
2022-11-29T02:27:13.772Z,21.15
2022-11-29T02:30:09.250Z,21.33
2022-11-29T02:33:13.233Z,19.80
2022-11-29T02:36:27.614Z,19.15
2022-11-29T02:39:14.463Z,20.95
2022-11-29T02:42:03.957Z,21.27
2022-11-29T02:45:28.391Z,20.45
2022-11-29T02:48:28.434Z,20.83
2022-11-29T02:51:25.777Z,20.60
2022-11-29T02:54:36.386Z,20.98
2022-11-29T02:57:40.016Z,19.25
2022-11-29T03:00:26.971Z,22.60
2022-11-29T03:03:22.038Z,21.45
2022-11-29T03:06:18.122Z,21.25
2022-11-29T03:09:20.125Z,21.25
2022-11-29T03:12:10.241Z,22.33
2022-11-29T03:15:16.014Z,22.52
2022-11-29T03:18:26.816Z,21.92
2022-11-29T03:21:24.689Z,20.80
2022-11-29T03:24:21.273Z,22.13
2022-11-29T03:27:14.072Z,22.70
2022-11-29T03:30:05.115Z,21.83
2022-11-29T03:33:10.261Z,22.42
2022-11-29T03:36:07.236Z,21.52
2022-11-29T03:38:58.716Z,21.17
2022-11-29T03:44:40.995Z,20.33
2022-11-29T03:50:23.719Z,21.27
2022-11-29T03:53:34.292Z,20.30
2022-11-29T03:56:32.218Z,22.20
2022-11-29T03:59:33.957Z,21.30
2022-11-29T04:02:58.051Z,20.92
2022-11-29T04:05:54.827Z,22.05
2022-11-29T04:09:02.756Z,22.27
2022-11-29T04:12:04.181Z,21.85
2022-11-29T04:14:56.864Z,22.55
2022-11-29T04:18:01.139Z,21.60
2022-11-29T04:21:01.934Z,20.60
2022-11-29T04:24:28.696Z,22.58
2022-11-29T04:27:33.788Z,22.02
2022-11-29T04:30:22.158Z,23.70
2022-11-29T04:33:17.273Z,23.90
2022-11-29T04:36:29.655Z,22.30
2022-11-29T04:39:56.828Z,23.00
2022-11-29T04:43:14.915Z,23.98
2022-11-29T04:46:07.581Z,25.08
2022-11-29T04:48:59.845Z,21.98
2022-11-29T04:51:55.430Z,23.52
2022-11-29T04:54:57.204Z,23.85
2022-11-29T04:57:47.946Z,23.17
2022-11-29T05:00:47.263Z,21.98
2022-11-29T05:03:49.339Z,24.65
2022-11-29T05:07:06.048Z,24.17
2022-11-29T05:10:25.333Z,23.13
2022-11-29T05:13:29.338Z,23.48
2022-11-29T05:16:25.675Z,23.23
2022-11-29T05:19:27.387Z,23.98
2022-11-29T05:22:40.006Z,23.58
2022-11-29T05:25:46.344Z,24.40
2022-11-29T05:28:51.525Z,25.58
2022-11-29T05:32:00.606Z,24.25
2022-11-29T05:35:06.055Z,25.20
2022-11-29T05:37:55.467Z,25.88
2022-11-29T05:41:23.547Z,23.50
2022-11-29T05:44:14.628Z,25.45
2022-11-29T05:47:06.391Z,25.17
2022-11-29T05:50:30.922Z,25.60
2022-11-29T05:53:55.454Z,23.92
2022-11-29T05:56:51.728Z,23.90
2022-11-29T05:59:39.234Z,24.88
2022-11-29T06:02:34.703Z,24.55
2022-11-29T06:05:36.975Z,25.25
2022-11-29T06:08:51.057Z,24.25
2022-11-29T06:11:56.874Z,24.02
2022-11-29T06:15:01.078Z,24.42
2022-11-29T06:17:53.746Z,25.08
2022-11-29T06:21:16.524Z,25.45
2022-11-29T06:24:25.956Z,23.90
2022-11-29T06:27:34.654Z,25.70
2022-11-29T06:30:24.204Z,25.33
2022-11-29T06:33:36.542Z,24.55
2022-11-29T06:36:28.159Z,24.30
2022-11-29T06:39:15.086Z,24.40
2022-11-29T06:42:01.572Z,23.70
2022-11-29T06:44:47.995Z,23.20
2022-11-29T06:47:40.206Z,24.90
2022-11-29T06:50:47.426Z,25.40
2022-11-29T06:53:44.419Z,28.80
2022-11-29T06:57:04.531Z,24.48
2022-11-29T07:00:00.672Z,25.15
2022-11-29T07:03:15.342Z,25.63
2022-11-29T07:06:12.252Z,24.45
2022-11-29T07:09:14.859Z,28.83
2022-11-29T07:12:01.946Z,31.98
2022-11-29T07:14:49.915Z,27.08
2022-11-29T07:17:49.329Z,28.13
2022-11-29T07:20:48.852Z,36.28
2022-11-29T07:24:05.843Z,39.15
2022-11-29T07:27:05.765Z,30.63
2022-11-29T07:30:01.588Z,33.20
2022-11-29T07:33:12.244Z,28.58
2022-11-29T07:36:23.822Z,24.95
2022-11-29T07:39:51.981Z,25.88
2022-11-29T07:42:44.641Z,25.75
2022-11-29T07:45:34.646Z,25.10
2022-11-29T07:48:21.251Z,27.17
2022-11-29T07:51:07.471Z,29.67
2022-11-29T07:53:54.148Z,40.53
2022-11-29T07:56:40.656Z,31.05
2022-11-29T07:59:27.233Z,30.50
2022-11-29T08:02:29.923Z,26.83
2022-11-29T08:05:18.006Z,26.40
2022-11-29T08:08:05.177Z,27.38
2022-11-29T08:10:52.128Z,25.65
2022-11-29T08:13:38.544Z,27.27
2022-11-29T08:16:27.278Z,26.17
2022-11-29T08:19:13.421Z,25.92
2022-11-29T08:22:02.781Z,24.60
2022-11-29T08:24:49.207Z,25.35
2022-11-29T08:27:37.019Z,25.08
2022-11-29T08:30:24.057Z,23.98
2022-11-29T08:33:10.874Z,25.50
2022-11-29T08:36:04.848Z,24.67
2022-11-29T08:38:57.162Z,25.70
2022-11-29T08:41:49.373Z,24.10
2022-11-29T08:44:41.190Z,24.50
2022-11-29T08:47:36.351Z,24.50
2022-11-29T08:50:23.072Z,26.30
2022-11-29T08:53:27.878Z,26.65
2022-11-29T08:57:04.374Z,25.23
2022-11-29T08:59:23.135Z,24.80
2022-11-29T09:02:12.443Z,27.35
2022-11-29T09:05:06.276Z,24.75
2022-11-29T09:10:40.693Z,25.98
2022-11-29T09:13:27.370Z,26.20
2022-11-29T09:16:18.151Z,25.20
2022-11-29T09:19:05.858Z,26.60
2022-11-29T09:21:52.083Z,26.85
2022-11-29T09:24:38.475Z,28.00
2022-11-29T09:27:24.830Z,28.35
2022-11-29T09:30:14.738Z,27.23
2022-11-29T09:33:04.919Z,29.25
2022-11-29T09:35:51.358Z,29.15
2022-11-29T09:38:38.209Z,25.17
2022-11-29T09:41:31.059Z,79.28
2022-11-29T09:44:43.433Z,65.78
2022-11-29T09:47:56.487Z,27.52
2022-11-29T09:51:01.304Z,26.70
2022-11-29T09:54:03.411Z,26.98
2022-11-29T09:56:53.108Z,32.67
2022-11-29T09:59:43.441Z,26.67
2022-11-29T10:02:47.861Z,29.40
2022-11-29T10:06:07.238Z,28.15
2022-11-29T10:09:03.777Z,26.33
2022-11-29T10:11:53.289Z,29.42
2022-11-29T10:14:52.689Z,25.90
2022-11-29T10:17:43.901Z,28.98
2022-11-29T10:20:36.497Z,26.00
2022-11-29T10:23:32.349Z,26.20
2022-11-29T10:26:20.423Z,28.85
2022-11-29T10:29:07.142Z,27.05
2022-11-29T10:31:56.845Z,29.17
2022-11-29T10:34:46.231Z,25.73
2022-11-29T10:37:33.119Z,24.83
2022-11-29T10:40:22.717Z,25.05
2022-11-29T10:43:09.237Z,26.90
2022-11-29T10:46:03.586Z,28.38
2022-11-29T10:49:02.428Z,27.00
2022-11-29T10:51:49.174Z,29.33
2022-11-29T10:54:45.300Z,26.85
2022-11-29T10:57:41.444Z,25.40
2022-11-29T11:00:28.988Z,26.30
2022-11-29T11:03:30.949Z,28.17
2022-11-29T11:06:45.692Z,28.35
2022-11-29T11:09:41.631Z,27.38
2022-11-29T11:12:35.997Z,28.25
2022-11-29T11:15:32.235Z,27.55
2022-11-29T11:21:32.677Z,27.17
2022-11-29T11:24:34.806Z,32.28
2022-11-29T11:30:37.550Z,29.50
2022-11-29T11:33:45.817Z,27.95
2022-11-29T11:39:34.304Z,26.17
2022-11-29T11:42:41.132Z,30.05
2022-11-29T11:45:39.104Z,41.83
2022-11-29T11:48:31.116Z,32.20
2022-11-29T11:51:27.568Z,33.50
2022-11-29T11:54:17.190Z,43.58
2022-11-29T11:57:10.648Z,42.58
2022-11-29T12:00:07.058Z,35.53
2022-11-29T12:03:40.382Z,38.13
2022-11-29T12:06:54.072Z,33.28
2022-11-29T12:09:53.849Z,29.35
2022-11-29T12:12:45.952Z,34.08
2022-11-29T12:15:38.652Z,27.10
2022-11-29T12:19:12.379Z,35.33
2022-11-29T12:22:07.437Z,30.95
2022-11-29T12:25:04.983Z,33.25
2022-11-29T12:28:05.054Z,30.10
2022-11-29T12:31:10.408Z,30.88
2022-11-29T12:34:22.071Z,45.80
2022-11-29T12:37:32.966Z,32.90
2022-11-29T12:40:44.778Z,31.85
2022-11-29T12:43:52.580Z,38.25
2022-11-29T12:46:39.859Z,31.60
2022-11-29T12:49:47.324Z,35.17
2022-11-29T12:53:23.955Z,30.27
2022-11-29T12:56:30.014Z,31.08
2022-11-29T12:59:38.305Z,38.53
2022-11-29T13:02:35.283Z,29.45
2022-11-29T13:05:25.293Z,32.70
2022-11-29T13:08:30.266Z,35.28
2022-11-29T13:11:37.318Z,33.42
2022-11-29T13:14:42.772Z,33.13
2022-11-29T13:17:35.881Z,34.65
2022-11-29T13:20:38.841Z,33.70
2022-11-29T13:23:45.538Z,32.85
2022-11-29T13:26:42.389Z,40.70
2022-11-29T13:29:32.254Z,31.60
2022-11-29T13:32:30.368Z,29.38
2022-11-29T13:35:22.758Z,30.80
2022-11-29T13:38:23.904Z,30.25
2022-11-29T13:41:23.429Z,39.25
2022-11-29T13:44:31.126Z,32.00
2022-11-29T13:47:19.245Z,30.40
2022-11-29T13:50:18.783Z,32.30
2022-11-29T13:53:23.935Z,38.58
2022-11-29T13:56:26.146Z,29.17
2022-11-29T13:59:24.266Z,33.70
2022-11-29T14:02:30.520Z,34.25
2022-11-29T14:05:25.732Z,32.90
2022-11-29T14:08:42.144Z,35.58
2022-11-29T14:11:52.003Z,31.65
2022-11-29T14:15:18.452Z,30.75
2022-11-29T14:18:09.726Z,31.75
2022-11-29T14:20:57.214Z,29.50
2022-11-29T14:23:44.604Z,31.30
2022-11-29T14:26:34.786Z,32.40
2022-11-29T14:29:47.670Z,37.75
2022-11-29T14:32:56.608Z,31.98
2022-11-29T14:35:47.532Z,36.35
2022-11-29T14:38:53.251Z,40.25
2022-11-29T14:41:55.455Z,49.17
2022-11-29T14:44:47.493Z,43.60
2022-11-29T14:47:47.646Z,37.13
2022-11-29T14:50:37.036Z,39.38
2022-11-29T14:53:33.546Z,40.20
2022-11-29T14:56:29.103Z,41.72
2022-11-29T14:59:50.784Z,37.97
2022-11-29T15:03:02.426Z,39.80
2022-11-29T15:06:01.124Z,41.25
2022-11-29T15:08:54.976Z,40.97
2022-11-29T15:11:51.064Z,39.42
2022-11-29T15:15:18.919Z,36.53
2022-11-29T15:18:46.798Z,41.22
2022-11-29T15:21:58.730Z,34.25
2022-11-29T15:24:52.724Z,56.80
2022-11-29T15:28:25.437Z,59.33
2022-11-29T15:31:15.631Z,55.38
2022-11-29T15:34:02.621Z,35.47
2022-11-29T15:36:49.010Z,47.92
2022-11-29T15:39:38.122Z,45.30
2022-11-29T15:42:28.285Z,42.17
2022-11-29T15:45:29.485Z,41.60
2022-11-29T15:48:19.278Z,44.70
2022-11-29T15:51:15.592Z,40.40
2022-11-29T15:54:34.086Z,42.67
2022-11-29T15:57:26.771Z,44.78
2022-11-29T16:00:23.325Z,42.72
2022-11-29T16:03:26.464Z,35.28
2022-11-29T16:06:23.978Z,43.63
2022-11-29T16:09:13.337Z,40.90
2022-11-29T16:12:18.098Z,35.58
2022-11-29T16:15:08.093Z,41.80
2022-11-29T16:18:22.466Z,35.42
2022-11-29T16:21:25.746Z,44.65
2022-11-29T16:24:20.764Z,35.65
2022-11-29T16:27:08.261Z,34.67
2022-11-29T16:29:55.917Z,35.67
2022-11-29T16:32:45.719Z,44.65
2022-11-29T16:35:43.910Z,44.22
2022-11-29T16:38:32.519Z,46.90
2022-11-29T16:41:33.453Z,51.80
2022-11-29T16:44:44.629Z,48.97
2022-11-29T16:47:52.991Z,40.90
2022-11-29T16:50:41.477Z,34.10
2022-11-29T16:53:40.544Z,37.80
2022-11-29T16:56:28.432Z,32.67
2022-11-29T16:59:26.358Z,31.65
2022-11-29T17:02:21.136Z,33.65
2022-11-29T17:05:09.178Z,34.03
2022-11-29T17:08:00.560Z,31.10
2022-11-29T17:10:50.317Z,30.58
2022-11-29T17:13:40.557Z,30.70
2022-11-29T17:16:31.083Z,43.50
2022-11-29T17:19:19.492Z,45.70
2022-11-29T17:22:11.626Z,42.15
2022-11-29T17:27:44.912Z,49.63
2022-11-29T17:30:35.988Z,35.70
2022-11-29T17:33:33.481Z,53.97
2022-11-29T17:36:28.023Z,40.85
2022-11-29T17:39:20.323Z,53.58
2022-11-29T17:42:13.713Z,73.25
2022-11-29T17:45:02.992Z,48.22
2022-11-29T17:47:55.221Z,79.57
2022-11-29T17:50:50.487Z,41.03
2022-11-29T17:53:36.890Z,48.72
2022-11-29T17:56:25.461Z,36.42
2022-11-29T17:59:13.112Z,40.92
2022-11-29T18:02:02.090Z,39.22
2022-11-29T18:04:50.971Z,39.28
2022-11-29T18:08:00.057Z,46.88
2022-11-29T18:10:46.843Z,46.72
2022-11-29T18:13:40.086Z,43.85
2022-11-29T18:16:34.223Z,42.30
2022-11-29T18:19:24.045Z,43.97
2022-11-29T18:22:19.295Z,37.85
2022-11-29T18:25:36.796Z,31.88
2022-11-29T18:28:12.380Z,32.53
2022-11-29T18:31:04.672Z,42.60
2022-11-29T18:33:53.565Z,37.20
2022-11-29T18:36:56.492Z,46.28
2022-11-29T18:39:45.789Z,45.60
2022-11-29T18:42:37.379Z,39.88
2022-11-29T18:45:26.848Z,38.78
2022-11-29T18:48:14.188Z,39.03
2022-11-29T18:51:03.392Z,40.92
2022-11-29T18:53:50.124Z,44.97
2022-11-29T18:56:37.468Z,50.25
2022-11-29T18:59:29.329Z,41.85
2022-11-29T19:02:20.003Z,49.15
2022-11-29T19:05:09.868Z,45.70
2022-11-29T19:08:01.518Z,45.88
2022-11-29T19:10:51.426Z,61.38
2022-11-29T19:13:38.024Z,50.40
2022-11-29T19:16:29.989Z,46.58
2022-11-29T19:19:21.386Z,43.20
2022-11-29T19:22:08.981Z,47.60
2022-11-29T19:24:57.282Z,45.28
2022-11-29T19:27:47.341Z,37.65
2022-11-29T19:30:44.417Z,39.53
2022-11-29T19:33:33.272Z,39.55
2022-11-29T19:36:34.514Z,38.47
2022-11-29T19:42:10.094Z,34.15
2022-11-29T19:45:17.449Z,36.47
2022-11-29T19:48:14.414Z,35.15
2022-11-29T19:51:05.314Z,48.03
2022-11-29T19:53:59.270Z,44.65
2022-11-29T19:56:50.729Z,38.88
2022-11-29T19:59:40.370Z,36.15
2022-11-29T20:02:29.384Z,34.85
2022-11-29T20:05:16.112Z,34.15
2022-11-29T20:08:06.937Z,35.92
2022-11-29T20:11:14.226Z,36.30
2022-11-29T20:14:04.383Z,33.05
2022-11-29T20:17:02.098Z,34.67
2022-11-29T20:19:58.631Z,35.53
2022-11-29T20:22:56.307Z,32.40
2022-11-29T20:25:52.134Z,33.30
2022-11-29T20:28:42.028Z,35.55
2022-11-29T20:31:31.232Z,37.63
2022-11-29T20:34:30.687Z,34.38
2022-11-29T20:37:57.727Z,38.53
2022-11-29T20:41:23.788Z,35.00
2022-11-29T20:44:16.418Z,33.20
2022-11-29T20:47:29.380Z,35.72
2022-11-29T20:50:27.567Z,33.55
2022-11-29T20:53:26.305Z,33.80
2022-11-29T20:56:14.632Z,33.42
2022-11-29T20:59:02.103Z,34.83
2022-11-29T21:01:50.805Z,34.78
2022-11-29T21:04:39.192Z,35.15
2022-11-29T21:07:26.412Z,35.72
2022-11-29T21:10:15.634Z,34.15
2022-11-29T21:13:06.215Z,34.47
2022-11-29T21:15:55.918Z,35.13
2022-11-29T21:18:45.577Z,36.50
2022-11-29T21:22:03.756Z,37.10
2022-11-29T21:25:14.566Z,37.22
2022-11-29T21:28:01.233Z,35.72
2022-11-29T21:30:50.443Z,33.67
2022-11-29T21:33:47.447Z,33.15
2022-11-29T21:36:36.246Z,32.05
2022-11-29T21:39:29.046Z,31.95
2022-11-29T21:42:21.509Z,32.83
2022-11-29T21:45:15.808Z,35.10
2022-11-29T21:48:29.157Z,33.13
2022-11-29T21:51:18.305Z,31.92
2022-11-29T21:54:09.550Z,32.25
2022-11-29T21:56:59.432Z,32.92
2022-11-29T21:59:46.863Z,32.78
2022-11-29T22:02:41.173Z,31.77
2022-11-29T22:05:28.498Z,31.63
2022-11-29T22:08:16.147Z,33.58
2022-11-29T22:11:19.522Z,33.30
2022-11-29T22:14:14.648Z,32.60
2022-11-29T22:17:13.664Z,33.08
2022-11-29T22:19:59.751Z,34.13
2022-11-29T22:22:49.127Z,34.38
2022-11-29T22:25:44.292Z,33.00
2022-11-29T22:28:34.938Z,32.90
2022-11-29T22:31:21.410Z,33.28
2022-11-29T22:34:08.199Z,33.42
2022-11-29T22:36:57.367Z,32.33
2022-11-29T22:39:44.164Z,34.53
2022-11-29T22:42:30.438Z,31.50
2022-11-29T22:45:17.339Z,31.88
2022-11-29T22:48:13.622Z,33.70
2022-11-29T22:51:08.240Z,31.75
2022-11-29T22:53:57.109Z,33.85
2022-11-29T22:56:45.701Z,30.88
2022-11-29T22:59:34.937Z,30.48
2022-11-29T23:02:24.820Z,31.27
2022-11-29T23:05:17.208Z,31.15
2022-11-29T23:08:04.197Z,30.70
2022-11-29T23:10:57.569Z,32.83
2022-11-29T23:13:47.075Z,33.55
2022-11-29T23:16:33.705Z,31.73
2022-11-29T23:19:28.662Z,32.83
2022-11-29T23:22:15.137Z,31.15
2022-11-29T23:25:01.845Z,31.73
2022-11-29T23:27:51.077Z,32.33
2022-11-29T23:30:37.656Z,32.05
2022-11-29T23:33:29.180Z,31.88
2022-11-29T23:36:18.149Z,32.22
2022-11-29T23:39:07.584Z,33.17
2022-11-29T23:41:53.948Z,31.73
2022-11-29T23:44:40.359Z,29.92
2022-11-29T23:47:27.605Z,33.45
2022-11-29T23:50:14.565Z,31.80
2022-11-29T23:53:01.139Z,31.58
2022-11-29T23:56:01.129Z,33.92
2022-11-29T23:58:47.987Z,32.70
